Sabine, Texas
Current Conditions -  °F | °C
As of 10:53 AM on Sunday 23 Nov 2014 (Local Time) from KBPT Reporting Station
Clear Clear  
Wind Chill: 70°   Ceiling: Unl
Heat Index: 70°   Visibility: 10mi
Dew Point: 59°   Wind: 16mph
Humidity: 68%   Direction: 220°SW
Pressure: 29.65"   Gusts: 22mph
Location:  29.7569°N, 94.1898°W
Report Text: KBPT 231653Z 22014G19KT 10SM CLR 21/15 A2965 RMK AO2 SLP039 T02110150
Loading
Personal Weather Stations






























Interactive Weather Map New forecast layout! Learn more

10-Day Weather Forecast

Advertisements
Track Severe Weather on mobile